Time;durP1;ratioP1;P1;durP2;ratioP2;P2;SDS_P1;SDS_P2;PMS_P1;PMS_P2;Temp;Humidity;BMP_temperature;BMP_pressure;BME280_temperature;BME280_humidity;BME280_pressure;Samples;Min_cycle;Max_cycle;Signal;HPM_P1;HPM_P2
2021/05/24 00:02:12;;;;;;;2.35;0.50;;;;;;;25.98;21.98;98639.38;5093781;28;20453;-85
2021/05/24 00:04:38;;;;;;;1.23;0.52;;;;;;;25.86;22.38;98648.47;5089135;28;20103;-85
2021/05/24 00:07:04;;;;;;;0.57;0.40;;;;;;;25.76;22.28;98643.88;5073391;28;20119;-85
2021/05/24 00:09:31;;;;;;;0.98;0.60;;;;;;;25.77;22.40;98639.81;5073594;28;20032;-85
2021/05/24 00:11:57;;;;;;;4.68;0.70;;;;;;;25.51;22.75;98639.94;5089151;28;20476;-85
2021/05/24 00:14:25;;;;;;;0.50;0.40;;;;;;;25.33;22.71;98643.03;5093633;28;20024;-85
2021/05/24 00:16:52;;;;;;;1.30;0.50;;;;;;;25.28;22.70;98647.13;5093360;28;20028;-85
2021/05/24 00:19:18;;;;;;;2.30;0.63;;;;;;;25.22;23.16;98650.88;5093597;28;20449;-85
2021/05/24 00:21:44;;;;;;;0.70;0.47;;;;;;;25.46;22.75;98652.47;5093222;28;20032;-85
2021/05/24 00:24:10;;;;;;;2.08;0.50;;;;;;;25.58;22.69;98656.69;5093508;28;20394;-85
2021/05/24 00:26:36;;;;;;;1.63;0.40;;;;;;;25.64;22.50;98660.56;5093433;28;20036;-85
2021/05/24 00:29:03;;;;;;;1.02;0.50;;;;;;;25.71;22.03;98666.88;5093013;28;20391;-85
2021/05/24 00:31:29;;;;;;;1.08;0.65;;;;;;;25.87;21.69;98675.38;5093311;28;20028;-85
2021/05/24 00:33:55;;;;;;;0.47;0.40;;;;;;;25.52;21.54;98667.63;5078602;28;20093;-85
2021/05/24 00:36:21;;;;;;;0.85;0.50;;;;;;;25.46;21.85;98663.72;5072915;28;20032;-85
2021/05/24 00:38:48;;;;;;;1.25;0.40;;;;;;;25.47;21.44;98673.72;5071871;28;20029;-85
2021/05/24 00:41:14;;;;;;;0.85;0.85;;;;;;;25.48;21.67;98668.91;5073359;28;20028;-85
2021/05/24 00:43:41;;;;;;;0.45;0.38;;;;;;;25.33;22.32;98671.94;5073287;28;20021;-85
2021/05/24 00:46:07;;;;;;;0.30;0.30;;;;;;;25.27;22.10;98673.66;5090225;28;20052;-85
2021/05/24 00:48:33;;;;;;;1.13;0.30;;;;;;;25.37;22.30;98669.06;5092070;28;20566;-85
2021/05/24 00:50:59;;;;;;;0.43;0.30;;;;;;;25.42;22.17;98668.56;5092915;28;20028;-85
2021/05/24 00:53:26;;;;;;;0.47;0.30;;;;;;;25.47;21.75;98670.91;5093529;28;20115;-85
2021/05/24 00:55:52;;;;;;;0.80;0.38;;;;;;;25.43;21.90;98675.78;5093390;28;20056;-85
2021/05/24 00:58:18;;;;;;;1.50;0.70;;;;;;;25.13;22.70;98681.53;5093406;28;20387;-85
2021/05/24 01:00:47;;;;;;;0.35;0.30;;;;;;;25.06;22.22;98684.47;5093090;28;20475;-85
2021/05/24 01:03:14;;;;;;;0.43;0.40;;;;;;;25.01;22.27;98693.38;5091713;28;20020;-85
2021/05/24 01:05:42;;;;;;;0.38;0.28;;;;;;;25.08;22.31;98684.84;5093135;28;20036;-85
2021/05/24 01:08:11;;;;;;;1.30;0.40;;;;;;;25.07;22.06;98678.41;5093050;28;20028;-85
2021/05/24 01:10:37;;;;;;;0.40;0.40;;;;;;;25.15;21.86;98674.28;5093025;28;20135;-85
2021/05/24 01:13:06;;;;;;;0.30;0.30;;;;;;;25.46;21.43;98676.97;5093331;28;20024;-85
2021/05/24 01:15:33;;;;;;;0.55;0.43;;;;;;;25.69;21.23;98679.75;5092205;28;20059;-85
2021/05/24 01:18:00;;;;;;;1.30;0.35;;;;;;;25.88;21.14;98676.94;5090759;28;20056;-85
2021/05/24 01:20:27;;;;;;;0.98;0.50;;;;;;;26.00;20.92;98681.13;5095340;28;20038;-85
2021/05/24 01:25:30;;;;;;;0.40;0.32;;;;;;;25.25;21.97;98690.13;5097091;28;20063;-85
2021/05/24 01:27:57;;;;;;;1.60;0.70;;;;;;;24.65;23.05;98684.66;5096581;28;20038;-85
2021/05/24 01:30:24;;;;;;;1.30;0.43;;;;;;;24.58;22.66;98682.75;5096353;28;20111;-84
2021/05/24 01:32:50;;;;;;;0.95;0.73;;;;;;;24.67;23.04;98683.00;5096890;28;20064;-84
2021/05/24 01:35:17;;;;;;;0.68;0.40;;;;;;;24.98;22.61;98694.22;5095983;28;20115;-85
2021/05/24 01:37:43;;;;;;;0.75;0.50;;;;;;;25.23;22.34;98692.59;5096719;28;20071;-84
2021/05/24 01:40:11;;;;;;;0.40;0.38;;;;;;;25.30;22.51;98691.66;5096455;28;20032;-84
2021/05/24 01:42:37;;;;;;;1.42;1.38;;;;;;;25.48;21.91;98683.78;5096364;28;20063;-84
2021/05/24 01:45:04;;;;;;;1.15;0.63;;;;;;;25.39;21.39;98692.72;5095070;28;20028;-84
2021/05/24 01:47:31;;;;;;;0.68;0.63;;;;;;;25.18;21.95;98687.44;5096190;28;20039;-85
2021/05/24 01:49:57;;;;;;;0.60;0.45;;;;;;;25.22;21.81;98688.22;5095987;28;20047;-85
2021/05/24 01:52:24;;;;;;;1.20;0.40;;;;;;;25.32;21.35;98683.63;5096255;28;20506;-84
2021/05/24 01:54:50;;;;;;;0.82;0.55;;;;;;;25.42;21.82;98682.63;5096355;28;20039;-85
2021/05/24 01:57:16;;;;;;;0.70;0.40;;;;;;;25.38;21.56;98677.09;5095259;28;20450;-85
2021/05/24 01:59:44;;;;;;;0.60;0.40;;;;;;;25.36;21.56;98682.34;5096250;28;20040;-85
2021/05/24 02:02:10;;;;;;;0.75;0.38;;;;;;;25.41;21.45;98687.44;5090754;28;20025;-84
2021/05/24 02:04:36;;;;;;;0.40;0.40;;;;;;;25.42;21.82;98685.44;5089946;28;20039;-84
2021/05/24 02:07:03;;;;;;;0.57;0.30;;;;;;;25.51;21.54;98687.75;5095851;28;20043;-84
2021/05/24 02:09:29;;;;;;;0.68;0.50;;;;;;;25.48;21.18;98699.84;5095592;28;20036;-84
2021/05/24 02:11:56;;;;;;;0.55;0.40;;;;;;;25.37;21.48;98699.97;5096066;28;20032;-84
2021/05/24 02:14:22;;;;;;;1.33;0.40;;;;;;;25.31;21.72;98698.91;5095788;28;20032;-84
2021/05/24 02:16:51;;;;;;;0.77;0.50;;;;;;;25.54;22.31;98700.91;5094205;28;20027;-84
2021/05/24 02:19:19;;;;;;;0.47;0.30;;;;;;;25.51;21.67;98702.56;5095438;28;20028;-84
2021/05/24 02:21:46;;;;;;;1.00;0.47;;;;;;;25.47;21.30;98703.84;5095672;28;20044;-84
2021/05/24 02:24:13;;;;;;;0.50;0.40;;;;;;;25.31;21.72;98702.50;5095566;28;20082;-84
2021/05/24 02:26:43;;;;;;;1.38;0.60;;;;;;;25.21;21.53;98700.66;5095440;28;20101;-84
2021/05/24 02:29:11;;;;;;;0.60;0.40;;;;;;;25.19;21.41;98707.94;5095358;28;20035;-84
2021/05/24 02:31:39;;;;;;;0.70;0.50;;;;;;;25.38;21.20;98702.38;5094860;28;20028;-84
2021/05/24 02:34:06;;;;;;;0.80;0.40;;;;;;;25.44;21.41;98697.06;5095248;28;20103;-84
2021/05/24 02:36:33;;;;;;;0.50;0.30;;;;;;;25.62;20.91;98694.75;5095350;28;20103;-84
2021/05/24 02:39:01;;;;;;;0.38;0.30;;;;;;;25.79;20.75;98699.25;5095502;28;20032;-84
2021/05/24 02:41:27;;;;;;;0.82;0.40;;;;;;;25.70;20.67;98703.84;5095307;28;20028;-84
2021/05/24 02:43:53;;;;;;;0.43;0.40;;;;;;;25.63;20.44;98706.78;5094942;28;20028;-84
2021/05/24 02:46:19;;;;;;;0.93;0.50;;;;;;;25.69;20.23;98700.25;5095090;28;20110;-84
2021/05/24 02:48:45;;;;;;;0.40;0.40;;;;;;;25.75;20.26;98692.91;5093987;28;20040;-84
2021/05/24 02:51:11;;;;;;;0.40;0.40;;;;;;;25.81;20.34;98693.97;5095071;28;20036;-84
2021/05/24 02:53:37;;;;;;;0.98;0.52;;;;;;;25.75;20.50;98695.72;5095317;28;20020;-84
2021/05/24 02:56:04;;;;;;;1.13;0.40;;;;;;;25.75;20.19;98703.34;5094912;28;20024;-84
2021/05/24 02:58:30;;;;;;;0.82;0.50;;;;;;;25.77;20.73;98709.34;5093621;28;20028;-84
2021/05/24 03:00:56;;;;;;;0.65;0.50;;;;;;;25.58;20.92;98710.13;5094195;28;20028;-84
2021/05/24 03:03:24;;;;;;;4.05;0.43;;;;;;;25.54;21.14;98720.59;5094817;28;20028;-84
2021/05/24 03:05:51;;;;;;;0.60;0.60;;;;;;;25.40;21.53;98727.25;5094583;28;20020;-84
2021/05/24 03:08:17;;;;;;;0.50;0.40;;;;;;;25.28;21.93;98730.66;5094664;28;20111;-84
2021/05/24 03:10:43;;;;;;;0.60;0.50;;;;;;;24.76;22.55;98730.28;5094642;28;20483;-84
2021/05/24 03:13:09;;;;;;;1.38;0.50;;;;;;;24.60;22.67;98741.28;5094927;28;20024;-84
2021/05/24 03:15:35;;;;;;;0.63;0.63;;;;;;;24.78;22.05;98729.84;5095001;28;20036;-84
2021/05/24 03:18:02;;;;;;;1.00;0.60;;;;;;;24.81;22.71;98735.41;5094151;28;20109;-84
2021/05/24 03:20:28;;;;;;;0.30;0.30;;;;;;;25.08;22.66;98732.59;5094432;28;20438;-84
2021/05/24 03:22:54;;;;;;;0.60;0.50;;;;;;;25.59;22.27;98737.00;5094385;28;20548;-84
2021/05/24 03:25:21;;;;;;;0.40;0.40;;;;;;;26.00;21.51;98737.41;5094435;28;20106;-84
2021/05/24 03:27:48;;;;;;;0.57;0.20;;;;;;;26.38;21.01;98727.44;5094558;28;20101;-84
2021/05/24 03:30:16;;;;;;;0.63;0.40;;;;;;;26.40;21.41;98730.59;5094045;28;20035;-84
2021/05/24 03:32:42;;;;;;;0.40;0.20;;;;;;;26.88;20.82;98735.63;5092971;28;20044;-84
2021/05/24 03:35:10;;;;;;;0.55;0.30;;;;;;;27.53;20.27;98739.31;5093900;28;20031;-84
2021/05/24 03:37:36;;;;;;;0.43;0.30;;;;;;;27.84;19.62;98737.66;5094486;28;20082;-84
2021/05/24 03:40:07;;;;;;;0.55;0.40;;;;;;;28.16;20.32;98736.03;5094434;28;20559;-84
2021/05/24 03:42:34;;;;;;;;;;;;;;;28.17;20.71;98732.75;5093661;28;20111;-84
2021/05/24 03:45:01;;;;;;;0.35;0.35;;;;;;;28.74;19.81;98738.38;5094136;28;19912;-85
2021/05/24 03:47:27;;;;;;;0.47;0.45;;;;;;;28.59;21.26;98739.25;5093963;28;20081;-85
2021/05/24 03:49:53;;;;;;;0.55;0.45;;;;;;;28.67;21.42;98740.59;5093983;28;20125;-85
2021/05/24 03:52:19;;;;;;;0.50;0.30;;;;;;;28.79;20.67;98750.34;5093835;28;20039;-85
2021/05/24 03:54:45;;;;;;;2.42;0.65;;;;;;;28.92;21.78;98746.28;5093906;28;20430;-85
2021/05/24 03:57:12;;;;;;;0.63;0.50;;;;;;;28.92;21.66;98746.28;5093786;28;20515;-85
2021/05/24 03:59:39;;;;;;;1.15;0.55;;;;;;;29.02;21.90;98747.19;5087679;28;20028;-85
2021/05/24 04:02:05;;;;;;;1.42;0.70;;;;;;;29.06;21.97;98756.34;5073636;28;20492;-85
2021/05/24 04:04:31;;;;;;;1.00;0.60;;;;;;;29.13;22.24;98747.63;5073513;28;20070;-85
2021/05/24 04:07:00;;;;;;;0.82;0.80;;;;;;;29.23;21.77;98746.53;5091309;28;20036;-85
2021/05/24 04:09:26;;;;;;;1.08;0.70;;;;;;;29.29;22.34;98744.75;5089725;28;20045;-85
2021/05/24 04:11:53;;;;;;;1.00;0.90;;;;;;;29.09;22.60;98744.16;5093588;28;20032;-85
2021/05/24 04:14:19;;;;;;;0.95;0.70;;;;;;;29.11;22.91;98744.47;5093439;28;20077;-85
2021/05/24 04:16:45;;;;;;;1.08;0.60;;;;;;;29.15;22.10;98740.28;5093434;28;20028;-85
2021/05/24 04:19:12;;;;;;;1.17;0.60;;;;;;;29.32;22.64;98736.13;5093848;28;20031;-85
2021/05/24 04:21:43;;;;;;;0.77;0.60;;;;;;;29.36;22.01;98742.47;5093714;28;20085;-85
2021/05/24 04:24:11;;;;;;;1.27;0.80;;;;;;;29.38;21.96;98734.31;5093861;28;20052;-85
2021/05/24 04:26:37;;;;;;;1.30;0.80;;;;;;;29.42;22.27;98739.84;5093365;28;20491;-85
2021/05/24 04:29:04;;;;;;;0.82;0.50;;;;;;;29.47;21.64;98732.84;5093179;28;20042;-85
2021/05/24 04:31:31;;;;;;;0.82;0.60;;;;;;;29.48;22.16;98737.25;5093667;28;20028;-85
2021/05/24 04:33:57;;;;;;;1.77;0.52;;;;;;;29.22;22.46;98725.19;5093414;28;20028;-85
2021/05/24 04:36:23;;;;;;;0.60;0.50;;;;;;;29.20;22.36;98725.63;5093261;28;20074;-85
2021/05/24 04:38:49;;;;;;;0.40;0.40;;;;;;;29.04;22.87;98722.88;5093440;28;20028;-85
2021/05/24 04:41:15;;;;;;;0.95;0.60;;;;;;;29.01;23.04;98731.50;5093716;28;20111;-85
2021/05/24 04:43:42;;;;;;;0.52;0.47;;;;;;;29.50;23.30;98741.19;5092997;28;20051;-85
2021/05/24 04:46:09;;;;;;;0.68;0.50;;;;;;;30.03;22.36;98748.69;5093355;28;20025;-85
2021/05/24 04:48:36;;;;;;;0.45;0.40;;;;;;;29.97;22.37;98763.88;5093123;28;20036;-85
2021/05/24 04:51:03;;;;;;;0.55;0.35;;;;;;;29.56;22.36;98762.03;5093604;28;20028;-85
2021/05/24 04:53:31;;;;;;;1.00;0.35;;;;;;;29.31;23.22;98768.47;5095981;28;20040;-86
2021/05/24 04:55:57;;;;;;;2.10;0.50;;;;;;;29.04;23.58;98770.94;5097336;28;20479;-85
2021/05/24 04:58:23;;;;;;;0.73;0.60;;;;;;;29.31;23.49;98773.38;5091646;28;20078;-85
2021/05/24 05:00:49;;;;;;;0.38;0.38;;;;;;;28.47;24.44;98774.66;5091686;28;20035;-85
2021/05/24 05:03:16;;;;;;;1.52;0.40;;;;;;;28.39;24.72;98789.44;5097194;28;20441;-85
2021/05/24 05:05:42;;;;;;;0.30;0.30;;;;;;;28.33;24.86;98785.59;5096903;28;20487;-86
2021/05/24 05:08:09;;;;;;;0.77;0.47;;;;;;;27.61;25.40;98787.88;5097346;28;20095;-86
2021/05/24 05:10:35;;;;;;;0.50;0.50;;;;;;;27.56;25.96;98782.78;5097352;28;20032;-86
2021/05/24 05:13:02;;;;;;;0.50;0.43;;;;;;;28.03;25.39;98779.13;5096933;28;20522;-86
2021/05/24 05:15:28;;;;;;;0.47;0.43;;;;;;;28.65;25.81;98779.84;5096983;28;20032;-86
2021/05/24 05:17:54;;;;;;;0.30;0.30;;;;;;;29.51;23.87;98778.78;5095201;28;20135;-86
2021/05/24 05:20:20;;;;;;;0.57;0.50;;;;;;;30.19;23.29;98780.91;5097098;28;20032;-86
2021/05/24 05:22:47;;;;;;;0.28;0.20;;;;;;;30.05;23.08;98776.53;5096699;28;20502;-86
2021/05/24 05:25:13;;;;;;;0.45;0.40;;;;;;;30.08;23.85;98778.47;5096878;28;20024;-86
2021/05/24 05:27:39;;;;;;;0.88;0.65;;;;;;;30.47;23.21;98772.19;5096484;28;20024;-86
2021/05/24 05:30:06;;;;;;;0.40;0.38;;;;;;;28.82;24.43;98778.53;5096857;28;20074;-86
2021/05/24 05:32:33;;;;;;;0.82;0.40;;;;;;;29.11;25.66;98786.91;5096609;28;20490;-87
2021/05/24 05:34:59;;;;;;;3.97;0.40;;;;;;;29.50;24.28;98785.69;5096513;28;20032;-87
2021/05/24 05:37:25;;;;;;;0.80;0.32;;;;;;;29.39;24.69;98792.47;5096421;28;20032;-87
2021/05/24 05:39:55;;;;;;;0.50;0.38;;;;;;;30.02;23.94;98800.09;5096502;28;20024;-87
2021/05/24 05:42:21;;;;;;;0.20;0.20;;;;;;;30.05;22.91;98794.31;5096529;28;20438;-86
2021/05/24 05:44:49;;;;;;;0.30;0.30;;;;;;;30.68;23.16;98801.78;5095182;28;20041;-87
2021/05/24 05:47:15;;;;;;;1.02;0.35;;;;;;;31.29;21.87;98784.03;5096289;28;20495;-87
2021/05/24 05:49:41;;;;;;;1.00;0.38;;;;;;;31.44;21.71;98796.41;5096559;28;20040;-87
2021/05/24 05:52:07;;;;;;;0.88;0.38;;;;;;;31.41;21.52;98786.75;5096111;28;20032;-88
2021/05/24 05:54:35;;;;;;;0.60;0.40;;;;;;;31.76;21.68;98773.16;5096220;28;20558;-88
2021/05/24 05:57:01;;;;;;;1.55;0.20;;;;;;;31.66;22.57;98782.91;5091850;28;20115;-87
2021/05/24 05:59:27;;;;;;;0.38;0.20;;;;;;;31.07;22.07;98789.75;5075931;28;20086;-87
2021/05/24 06:01:53;;;;;;;1.95;0.30;;;;;;;31.16;22.26;98798.31;5075899;28;20078;-86
2021/05/24 06:04:19;;;;;;;0.70;0.40;;;;;;;31.45;21.82;98791.53;5075217;28;20103;-87
2021/05/24 06:06:45;;;;;;;0.20;0.20;;;;;;;31.74;21.49;98786.25;5076727;28;20369;-87
2021/05/24 06:09:11;;;;;;;0.20;0.13;;;;;;;31.51;21.36;98786.84;5095466;28;20032;-87
2021/05/24 06:11:37;;;;;;;0.20;0.10;;;;;;;31.67;21.53;98792.25;5096192;28;20038;-87
2021/05/24 06:14:03;;;;;;;0.30;0.30;;;;;;;32.26;20.75;98793.75;5095946;28;20028;-87
2021/05/24 06:16:30;;;;;;;0.65;0.25;;;;;;;32.69;20.49;98791.41;5095763;28;20039;-87
2021/05/24 06:18:56;;;;;;;0.52;0.30;;;;;;;32.62;20.43;98790.94;5095530;28;20516;-88
2021/05/24 06:21:22;;;;;;;1.33;0.20;;;;;;;32.55;20.62;98794.91;5095606;28;20052;-87
2021/05/24 06:23:48;;;;;;;0.20;0.20;;;;;;;32.41;20.33;98789.03;5095395;28;20028;-87
2021/05/24 06:26:14;;;;;;;0.30;0.20;;;;;;;32.56;20.98;98792.81;5095485;28;20383;-87
2021/05/24 06:28:40;;;;;;;0.20;0.20;;;;;;;32.38;20.34;98782.22;5095826;28;20067;-87
2021/05/24 06:31:06;;;;;;;0.20;0.20;;;;;;;32.70;20.91;98783.63;5095684;28;20078;-88
2021/05/24 06:33:32;;;;;;;0.20;0.10;;;;;;;33.05;19.56;98784.84;5097257;28;20482;-89
2021/05/24 06:35:58;;;;;;;0.30;0.22;;;;;;;33.08;19.41;98780.25;5095328;28;20028;-90
2021/05/24 06:38:24;;;;;;;0.43;0.10;;;;;;;33.04;19.40;98788.97;5095115;28;20028;-89
2021/05/24 06:40:50;;;;;;;0.25;0.10;;;;;;;33.26;19.33;98792.38;5095368;28;20060;-90
2021/05/24 06:43:17;;;;;;;0.50;0.20;;;;;;;33.12;19.32;98795.91;5095414;28;20028;-90
2021/05/24 06:45:43;;;;;;;0.10;0.10;;;;;;;32.96;19.93;98798.28;5095269;28;20031;-91
2021/05/24 06:48:09;;;;;;;0.35;0.10;;;;;;;33.28;20.14;98798.38;5095519;28;20035;-89
2021/05/24 06:50:35;;;;;;;0.30;0.25;;;;;;;33.14;19.95;98799.06;5093993;28;20097;-90
2021/05/24 06:53:01;;;;;;;0.52;0.10;;;;;;;33.09;19.85;98802.56;5094808;28;20422;-90
2021/05/24 06:55:27;;;;;;;0.20;0.20;;;;;;;33.18;18.68;98796.84;5091960;28;20387;-90
2021/05/24 06:57:53;;;;;;;0.10;0.10;;;;;;;32.98;19.24;98790.84;5074738;28;20070;-90
2021/05/24 07:00:19;;;;;;;0.15;0.10;;;;;;;32.76;19.68;98778.91;5093691;28;20032;-89
2021/05/24 07:02:47;;;;;;;3.85;0.10;;;;;;;32.46;20.04;98786.34;5093657;28;20028;-89
2021/05/24 07:05:14;;;;;;;0.20;0.10;;;;;;;32.03;20.14;98778.13;5093929;28;20471;-90
2021/05/24 07:07:41;;;;;;;1.13;0.85;;;;;;;32.55;20.36;98774.19;5094433;28;20081;-90
2021/05/24 07:10:09;;;;;;;0.20;0.20;;;;;;;32.17;20.39;98780.34;5094910;28;20036;-89
2021/05/24 07:12:36;;;;;;;0.17;0.17;;;;;;;32.50;20.26;98777.69;5095292;28;20363;-89
2021/05/24 07:15:03;;;;;;;0.30;0.20;;;;;;;32.94;20.62;98773.16;5094668;28;20510;-89
2021/05/24 07:17:30;;;;;;;0.80;0.30;;;;;;;33.10;19.33;98769.19;5094263;28;20123;-89
2021/05/24 07:19:56;;;;;;;0.13;0.10;;;;;;;32.79;18.64;98768.63;5094482;28;20507;-89
2021/05/24 07:22:22;;;;;;;0.10;0.10;;;;;;;32.04;19.69;98774.03;5094263;28;20059;-88
2021/05/24 07:24:49;;;;;;;0.30;0.10;;;;;;;32.20;20.73;98779.41;5094805;28;20027;-89
2021/05/24 07:27:15;;;;;;;0.10;0.10;;;;;;;32.44;19.33;98782.41;5094713;28;20369;-89
2021/05/24 07:29:41;;;;;;;0.52;0.10;;;;;;;32.99;20.00;98781.06;5094562;28;20028;-89
2021/05/24 07:32:11;;;;;;;0.20;0.10;;;;;;;33.11;20.02;98785.00;5094171;28;20039;-89
2021/05/24 07:34:40;;;;;;;2.87;0.20;;;;;;;33.06;20.78;98786.44;5074322;28;20032;-89
2021/05/24 07:37:07;;;;;;;0.10;0.10;;;;;;;31.78;20.20;98784.06;5074049;28;20025;-89
2021/05/24 07:39:33;;;;;;;0.10;0.10;;;;;;;31.51;20.41;98764.13;5090476;28;20032;-87
2021/05/24 07:42:01;;;;;;;0.13;0.10;;;;;;;31.25;21.08;98767.13;5094123;28;20032;-89
2021/05/24 07:44:29;;;;;;;0.20;0.10;;;;;;;30.91;20.35;98767.28;5094198;28;20032;-89
2021/05/24 07:46:56;;;;;;;0.20;0.20;;;;;;;32.00;21.51;98762.00;5094151;28;20176;-89
2021/05/24 07:49:22;;;;;;;0.25;0.10;;;;;;;32.70;18.62;98767.38;5094386;28;20042;-89
2021/05/24 07:51:49;;;;;;;0.10;0.10;;;;;;;33.26;18.84;98765.97;5093825;28;20024;-89
2021/05/24 07:54:19;;;;;;;0.20;0.20;;;;;;;33.08;20.54;98763.19;5091160;28;20036;-89
2021/05/24 07:56:46;;;;;;;0.22;0.13;;;;;;;32.77;20.28;98756.94;5073728;28;20032;-89
2021/05/24 07:59:13;;;;;;;0.55;0.20;;;;;;;32.92;19.03;98755.00;5073548;28;20032;-89
2021/05/24 08:01:39;;;;;;;0.25;0.17;;;;;;;30.24;21.60;98754.81;5073682;28;20078;-89
2021/05/24 08:04:05;;;;;;;0.43;0.40;;;;;;;29.15;22.65;98762.16;5073544;28;20106;-89
2021/05/24 08:06:32;;;;;;;0.20;0.20;;;;;;;31.32;21.07;98754.72;5077494;28;20052;-89
2021/05/24 08:08:58;;;;;;;0.30;0.10;;;;;;;32.72;18.90;98747.78;5093609;28;20063;-89
2021/05/24 08:11:25;;;;;;;0.20;0.10;;;;;;;32.96;19.82;98747.88;5093720;28;20024;-89
2021/05/24 08:13:53;;;;;;;0.22;0.10;;;;;;;33.66;19.14;98742.84;5094244;28;20079;-89
2021/05/24 08:16:20;;;;;;;0.63;0.20;;;;;;;33.44;18.21;98740.25;5093628;28;20024;-89
2021/05/24 08:18:46;;;;;;;0.20;0.10;;;;;;;33.25;19.00;98745.25;5093412;28;20076;-89
2021/05/24 08:21:12;;;;;;;0.00;0.00;;;;;;;32.62;18.77;98743.38;5093234;28;20495;-88
2021/05/24 08:23:39;;;;;;;0.28;0.10;;;;;;;33.37;19.09;98752.78;5093478;28;20028;-89
2021/05/24 08:26:05;;;;;;;0.00;0.00;;;;;;;33.55;17.65;98756.84;5093598;28;20032;-89
2021/05/24 08:28:31;;;;;;;0.30;0.20;;;;;;;33.88;17.52;98761.22;5092853;28;20402;-89
2021/05/24 08:30:58;;;;;;;0.10;0.10;;;;;;;34.11;18.02;98750.31;5093604;28;20020;-89
2021/05/24 08:33:25;;;;;;;0.25;0.10;;;;;;;34.00;17.68;98745.16;5093677;28;20047;-89
2021/05/24 08:35:51;;;;;;;0.40;0.20;;;;;;;33.07;19.13;98742.47;5093190;28;20051;-89
2021/05/24 08:38:19;;;;;;;0.20;0.10;;;;;;;32.57;19.86;98740.38;5093280;28;20039;-87
2021/05/24 08:40:46;;;;;;;0.57;0.20;;;;;;;32.61;19.71;98744.63;5093459;28;20024;-88
2021/05/24 08:43:16;;;;;;;0.50;0.10;;;;;;;31.23;21.26;98738.44;5093511;28;20036;-87
2021/05/24 08:45:43;;;;;;;0.20;0.10;;;;;;;32.38;20.34;98748.13;5093560;28;20028;-87
2021/05/24 08:48:11;;;;;;;0.17;0.10;;;;;;;32.61;20.84;98726.78;5093514;28;20441;-87
2021/05/24 08:50:38;;;;;;;0.52;0.10;;;;;;;32.80;19.02;98721.84;5093059;28;20103;-87
2021/05/24 08:53:06;;;;;;;0.15;0.15;;;;;;;31.83;19.44;98721.75;5091767;28;20031;-86
2021/05/24 08:55:33;;;;;;;0.10;0.10;;;;;;;32.11;20.16;98716.88;5093494;28;20028;-87
2021/05/24 08:57:59;;;;;;;1.17;0.10;;;;;;;32.38;19.50;98707.53;5093197;28;20491;-87
2021/05/24 09:00:26;;;;;;;0.50;0.10;;;;;;;32.41;20.30;98700.91;5093188;28;20503;-88
2021/05/24 09:02:55;;;;;;;0.85;0.30;;;;;;;32.71;18.61;98695.00;5093116;28;20539;-87
2021/05/24 09:05:23;;;;;;;0.10;0.10;;;;;;;32.06;20.61;98700.47;5092875;28;20424;-87
2021/05/24 09:07:54;;;;;;;0.68;0.15;;;;;;;32.18;20.02;98699.53;5092894;28;20036;-87
2021/05/24 09:10:26;;;;;;;0.22;0.10;;;;;;;31.72;19.53;98695.84;5093404;28;20039;-87
2021/05/24 09:12:53;;;;;;;0.47;0.17;;;;;;;30.45;21.72;98694.56;5093336;28;20028;-88
2021/05/24 09:15:20;;;;;;;0.25;0.10;;;;;;;30.37;22.06;98693.22;5092853;28;20383;-87
2021/05/24 09:17:46;;;;;;;0.20;0.20;;;;;;;29.06;23.79;98694.13;5092625;28;20040;-87
2021/05/24 09:20:39;;;;;;;0.70;0.10;;;;;;;29.08;22.98;98702.97;5092960;28;20522;-87
2021/05/24 09:23:30;;;;;;;0.40;0.10;;;;;;;30.05;21.12;98694.41;5093033;28;20361;-88
2021/05/24 09:25:58;;;;;;;;;;;;;;;31.57;20.27;98689.22;5093679;28;20383;-87
2021/05/24 09:28:40;;;;;;;0.35;0.15;;;;;;;32.33;21.48;98691.91;5093130;28;19958;-87
2021/05/24 09:31:31;;;;;;;0.43;0.17;;;;;;;31.66;20.71;98691.25;5092964;28;20039;-87
2021/05/24 09:34:04;;;;;;;;;;;;;;;32.77;20.68;98686.59;5072838;28;20029;-87
2021/05/24 09:36:30;;;;;;;0.13;0.13;;;;;;;34.04;18.53;98683.88;5073241;28;19912;-87
2021/05/24 09:39:03;;;;;;;3.75;0.20;;;;;;;30.73;19.66;98662.25;5084281;28;20383;-88
2021/05/24 09:41:38;;;;;;;0.22;0.17;;;;;;;30.46;22.58;98662.91;5096138;28;20028;-87
2021/05/24 09:44:04;;;;;;;0.10;0.10;;;;;;;30.76;21.25;98664.16;5096449;28;20487;-87
2021/05/24 09:46:31;;;;;;;1.48;0.13;;;;;;;31.63;20.51;98670.28;5096512;28;20028;-88
2021/05/24 09:49:01;;;;;;;0.10;0.10;;;;;;;33.17;20.30;98657.84;5095915;28;20036;-87
2021/05/24 09:51:30;;;;;;;0.35;0.20;;;;;;;33.90;18.59;98658.94;5094334;28;20032;-88
2021/05/24 09:54:09;;;;;;;0.17;0.10;;;;;;;34.04;17.56;98646.81;5075949;28;20484;-87
2021/05/24 09:56:40;;;;;;;0.13;0.10;;;;;;;32.81;19.08;98644.56;5075970;28;20143;-88
2021/05/24 09:59:14;;;;;;;0.10;0.10;;;;;;;33.25;19.10;98653.38;5075896;28;20021;-87
2021/05/24 10:01:44;;;;;;;0.22;0.00;;;;;;;33.79;18.68;98646.53;5075876;28;20029;-87
2021/05/24 10:04:13;;;;;;;0.77;0.10;;;;;;;32.88;19.66;98649.13;5076052;28;20487;-87
2021/05/24 10:06:39;;;;;;;0.10;0.10;;;;;;;33.18;18.68;98633.81;5091906;28;20038;-87
2021/05/24 10:09:07;;;;;;;0.47;0.10;;;;;;;32.69;19.85;98642.72;5095802;28;20068;-88
2021/05/24 10:11:36;;;;;;;1.17;0.20;;;;;;;31.71;20.63;98626.13;5096160;28;20031;-88
2021/05/24 10:14:02;;;;;;;0.30;0.10;;;;;;;31.93;21.16;98628.78;5096278;28;20032;-87
2021/05/24 10:16:33;;;;;;;0.22;0.10;;;;;;;33.05;19.96;98631.19;5095881;28;20391;-88
2021/05/24 10:18:59;;;;;;;;;;;;;;;34.14;18.07;98635.31;5095944;28;20504;-88
2021/05/24 10:21:26;;;;;;;0.20;0.10;;;;;;;33.62;18.68;98626.25;5095714;28;20355;-87
2021/05/24 10:23:54;;;;;;;0.25;0.10;;;;;;;32.45;19.17;98633.28;5095818;28;20075;-88
2021/05/24 10:26:21;;;;;;;0.13;0.10;;;;;;;33.00;19.01;98626.13;5094391;28;20487;-88
2021/05/24 10:28:49;;;;;;;0.95;0.10;;;;;;;33.05;19.97;98619.81;5095772;28;20059;-88
2021/05/24 10:31:24;;;;;;;0.10;0.10;;;;;;;32.42;19.65;98620.81;5095362;28;20115;-88
2021/05/24 10:33:51;;;;;;;0.10;0.10;;;;;;;32.21;20.88;98621.06;5095505;28;20021;-88
2021/05/24 10:36:30;;;;;;;0.75;0.20;;;;;;;33.32;18.83;98613.97;5095735;28;20103;-88
2021/05/24 10:39:23;;;;;;;0.10;0.10;;;;;;;34.21;19.01;98604.38;5095693;28;20460;-88
2021/05/24 10:41:50;;;;;;;0.25;0.10;;;;;;;35.01;17.87;98605.94;5095336;28;20032;-88
2021/05/24 10:44:20;;;;;;;0.30;0.10;;;;;;;35.77;17.66;98608.31;5095294;28;20039;-89
2021/05/24 10:46:47;;;;;;;0.10;0.10;;;;;;;36.01;16.42;98614.56;5093782;28;20039;-88
2021/05/24 10:49:13;;;;;;;0.10;0.10;;;;;;;33.36;18.06;98614.56;5095417;28;20051;-88
2021/05/24 10:51:48;;;;;;;0.10;0.10;;;;;;;33.10;19.47;98615.50;5080827;28;20024;-89
2021/05/24 10:54:25;;;;;;;0.25;0.10;;;;;;;34.44;18.42;98609.19;5074772;28;20484;-90
2021/05/24 10:57:00;;;;;;;0.73;0.10;;;;;;;34.55;18.06;98608.59;5081493;28;20028;-90
2021/05/24 10:59:41;;;;;;;0.10;0.10;;;;;;;33.42;18.54;98606.16;5094744;28;20028;-90
2021/05/24 11:02:27;;;;;;;0.20;0.10;;;;;;;34.21;19.63;98612.91;5095077;28;20059;-89
2021/05/24 11:04:58;;;;;;;0.30;0.10;;;;;;;34.55;17.92;98600.81;5094936;28;20113;-89
2021/05/24 11:07:24;;;;;;;;;;;;;;;34.73;15.73;98605.50;5095538;28;20444;-90
2021/05/24 11:09:50;;;;;;;0.10;0.10;;;;;;;35.25;16.74;98587.38;5094825;28;20317;-90
2021/05/24 11:12:30;;;;;;;0.20;0.20;;;;;;;35.05;16.18;98584.50;5095002;28;20028;-89
2021/05/24 11:15:10;;;;;;;0.30;0.10;;;;;;;34.91;15.80;98576.75;5094299;28;20025;-89
2021/05/24 11:17:58;;;;;;;1.38;0.10;;;;;;;35.37;14.78;98574.00;5094851;28;20056;-89
2021/05/24 11:20:48;;;;;;;2.28;0.10;;;;;;;35.54;16.04;98571.41;5094750;28;20119;-89
2021/05/24 11:23:29;;;;;;;0.97;0.17;;;;;;;35.99;15.09;98582.03;5094848;28;20040;-91
2021/05/24 11:26:36;;;;;;;0.10;0.10;;;;;;;35.04;17.02;98557.22;5095068;28;20250;-89
2021/05/24 11:29:17;;;;;;;0.13;0.13;;;;;;;32.00;18.83;98557.47;5094144;28;20111;-90
2021/05/24 11:31:44;;;;;;;0.10;0.10;;;;;;;33.31;17.40;98558.28;5094264;28;20060;-90
2021/05/24 11:34:24;;;;;;;0.10;0.10;;;;;;;32.24;20.86;98551.88;5094603;28;20028;-89
2021/05/24 11:36:52;;;;;;;0.40;0.20;;;;;;;33.77;18.71;98552.22;5094584;28;20102;-90
2021/05/24 11:39:31;;;;;;;0.10;0.10;;;;;;;34.50;16.99;98552.22;5094357;28;20038;-89
2021/05/24 11:42:09;;;;;;;0.90;0.10;;;;;;;35.05;17.94;98550.25;5092985;28;20048;-90